createdAt,value
2022-11-05T00:00:18.276Z,74.53
2022-11-05T00:03:03.233Z,74.00
2022-11-05T00:05:48.420Z,74.54
2022-11-05T00:08:33.975Z,74.32
2022-11-05T00:11:00.684Z,74.16
2022-11-05T00:13:45.568Z,74.37
2022-11-05T00:16:30.370Z,73.66
2022-11-05T00:19:09.958Z,74.04
2022-11-05T00:21:57.032Z,74.41
2022-11-05T00:24:42.466Z,74.12
2022-11-05T00:27:09.557Z,74.32
2022-11-05T00:29:36.008Z,74.45
2022-11-05T00:32:02.781Z,70.85
2022-11-05T00:34:29.183Z,74.80
2022-11-05T00:36:56.098Z,74.44
2022-11-05T00:39:22.491Z,73.76
2022-11-05T00:42:08.899Z,73.63
2022-11-05T00:44:53.945Z,74.16
2022-11-05T00:47:38.865Z,74.45
2022-11-05T00:50:05.691Z,74.21
2022-11-05T00:52:50.641Z,74.41
2022-11-05T00:55:17.013Z,74.32
2022-11-05T00:57:43.422Z,74.11
2022-11-05T01:00:11.240Z,74.14
2022-11-05T01:02:37.846Z,73.64
2022-11-05T01:05:04.695Z,73.96
2022-11-05T01:07:31.263Z,74.49
2022-11-05T01:09:57.641Z,74.39
2022-11-05T01:12:24.057Z,74.01
2022-11-05T01:14:50.485Z,74.20
2022-11-05T01:17:16.983Z,74.04
2022-11-05T01:19:43.480Z,73.90
2022-11-05T01:22:09.869Z,74.36
2022-11-05T01:24:36.268Z,74.79
2022-11-05T01:27:02.687Z,74.26
2022-11-05T01:29:29.103Z,74.30
2022-11-05T01:31:55.536Z,74.21
2022-11-05T01:34:21.946Z,74.26
2022-11-05T01:36:48.314Z,74.49
2022-11-05T01:39:14.835Z,74.10
2022-11-05T01:41:41.251Z,73.19
2022-11-05T01:44:46.998Z,78.95
2022-11-05T01:47:42.904Z,76.84
2022-11-05T01:50:29.388Z,75.28
2022-11-05T01:53:20.891Z,74.70
2022-11-05T01:56:14.158Z,74.64
2022-11-05T01:58:46.822Z,74.53
2022-11-05T02:01:13.339Z,74.57
2022-11-05T02:03:40.361Z,71.85
2022-11-05T02:06:09.406Z,74.74
2022-11-05T02:08:55.839Z,76.06
2022-11-05T02:11:22.334Z,74.57
2022-11-05T02:13:49.622Z,74.98
2022-11-05T02:16:15.984Z,74.16
2022-11-05T02:18:58.442Z,75.49
2022-11-05T02:21:44.078Z,75.02
2022-11-05T02:24:37.025Z,73.22
2022-11-05T02:27:15.337Z,73.70
2022-11-05T02:30:03.117Z,75.01
2022-11-05T02:32:53.763Z,75.56
2022-11-05T02:35:48.911Z,74.86
2022-11-05T02:38:32.316Z,74.79
2022-11-05T02:41:16.947Z,75.62
2022-11-05T02:44:05.231Z,75.11
2022-11-05T02:46:58.013Z,75.43
2022-11-05T02:49:53.572Z,75.28
2022-11-05T02:52:36.383Z,75.07
2022-11-05T02:55:20.646Z,75.02
2022-11-05T02:57:47.932Z,74.85
2022-11-05T03:00:46.871Z,75.36
2022-11-05T03:03:19.494Z,74.86
2022-11-05T03:06:13.363Z,74.76
2022-11-05T03:09:04.778Z,74.78
2022-11-05T03:11:36.476Z,75.00
2022-11-05T03:14:07.507Z,74.99
2022-11-05T03:16:48.214Z,74.87
2022-11-05T03:19:21.862Z,74.98
2022-11-05T03:21:57.669Z,74.75
2022-11-05T03:24:29.534Z,74.79
2022-11-05T03:27:10.463Z,74.97
2022-11-05T03:29:42.401Z,75.25
2022-11-05T03:32:10.993Z,74.92
2022-11-05T03:34:43.486Z,75.29
2022-11-05T03:37:11.522Z,74.96
2022-11-05T03:39:42.923Z,75.15
2022-11-05T03:42:14.469Z,74.97
2022-11-05T03:44:46.445Z,75.41
2022-11-05T03:47:21.227Z,75.27
2022-11-05T03:49:56.374Z,75.03
2022-11-05T03:52:27.778Z,75.63
2022-11-05T03:54:54.546Z,74.77
2022-11-05T03:57:26.109Z,74.60
2022-11-05T03:59:52.679Z,75.20
2022-11-05T04:02:22.471Z,75.02
2022-11-05T04:04:49.486Z,74.83
2022-11-05T04:07:34.618Z,74.46
2022-11-05T04:10:19.507Z,74.90
2022-11-05T04:13:04.353Z,75.06
2022-11-05T04:15:51.427Z,75.59
2022-11-05T04:18:17.831Z,75.20
2022-11-05T04:21:02.892Z,75.72
2022-11-05T04:23:47.801Z,74.64
2022-11-05T04:26:14.210Z,82.36
2022-11-05T04:29:02.475Z,76.69
2022-11-05T04:31:31.602Z,75.94
2022-11-05T04:33:57.978Z,75.42
2022-11-05T04:36:24.357Z,75.23
2022-11-05T04:38:50.777Z,74.87
2022-11-05T04:41:18.028Z,75.24
2022-11-05T04:43:44.514Z,75.43
2022-11-05T04:46:10.999Z,75.53
2022-11-05T04:48:38.046Z,75.49
2022-11-05T04:51:04.879Z,74.48
2022-11-05T04:53:31.353Z,75.60
2022-11-05T04:56:10.223Z,75.64
2022-11-05T04:58:41.198Z,74.87
2022-11-05T05:01:13.006Z,77.21
2022-11-05T05:03:39.551Z,75.84
2022-11-05T05:06:06.380Z,75.61
2022-11-05T05:08:32.851Z,75.42
2022-11-05T05:11:07.249Z,74.35
2022-11-05T05:13:34.382Z,75.91
2022-11-05T05:16:08.906Z,75.85
2022-11-05T05:18:35.858Z,75.59
2022-11-05T05:21:21.212Z,76.24
2022-11-05T05:23:48.520Z,75.79
2022-11-05T05:26:17.975Z,75.37
2022-11-05T05:28:44.385Z,75.99
2022-11-05T05:31:10.880Z,75.60
2022-11-05T05:33:37.267Z,75.85
2022-11-05T05:36:09.987Z,75.38
2022-11-05T05:38:37.726Z,75.57
2022-11-05T05:41:04.219Z,75.87
2022-11-05T05:43:32.065Z,76.18
2022-11-05T05:46:03.059Z,75.45
2022-11-05T05:48:29.551Z,75.38
2022-11-05T05:51:01.098Z,75.74
2022-11-05T05:53:28.150Z,74.58
2022-11-05T05:55:56.030Z,75.46
2022-11-05T05:58:24.362Z,75.54
2022-11-05T06:00:50.776Z,75.64
2022-11-05T06:03:17.251Z,75.71
2022-11-05T06:05:43.699Z,75.66
2022-11-05T06:08:10.147Z,75.38
2022-11-05T06:10:37.267Z,75.55
2022-11-05T06:13:03.872Z,75.69
2022-11-05T06:15:34.695Z,75.84
2022-11-05T06:18:02.352Z,73.95
2022-11-05T06:20:28.758Z,79.25
2022-11-05T06:22:58.249Z,77.42
2022-11-05T06:25:25.527Z,76.06
2022-11-05T06:27:52.926Z,76.21
2022-11-05T06:30:21.610Z,76.01
2022-11-05T06:32:48.025Z,76.05
2022-11-05T06:35:14.495Z,75.67
2022-11-05T06:37:40.915Z,75.77
2022-11-05T06:40:08.156Z,75.53
2022-11-05T06:42:34.622Z,75.71
2022-11-05T06:45:02.123Z,76.11
2022-11-05T06:47:28.527Z,76.25
2022-11-05T06:49:56.746Z,75.90
2022-11-05T06:52:23.169Z,75.80
2022-11-05T06:54:49.566Z,75.86
2022-11-05T06:57:15.983Z,75.37
2022-11-05T06:59:42.371Z,75.65
2022-11-05T07:02:12.817Z,76.01
2022-11-05T07:04:39.405Z,76.07
2022-11-05T07:07:05.786Z,75.29
2022-11-05T07:09:32.181Z,74.83
2022-11-05T07:11:58.647Z,75.94
2022-11-05T07:14:25.082Z,75.73
2022-11-05T07:16:51.462Z,75.78
2022-11-05T07:19:17.851Z,76.20
2022-11-05T07:21:45.873Z,75.88
2022-11-05T07:24:14.298Z,75.65
2022-11-05T07:26:41.041Z,75.55
2022-11-05T07:29:07.662Z,75.73
2022-11-05T07:31:34.044Z,75.67
2022-11-05T07:34:00.945Z,74.88
2022-11-05T07:36:27.363Z,78.85
2022-11-05T07:38:58.925Z,76.38
2022-11-05T07:41:26.697Z,75.81
2022-11-05T07:43:53.154Z,75.72
2022-11-05T07:46:19.602Z,76.10
2022-11-05T07:48:46.002Z,76.09
2022-11-05T07:51:12.374Z,75.96
2022-11-05T07:53:42.521Z,76.15
2022-11-05T07:56:12.847Z,75.95
2022-11-05T07:58:39.320Z,75.69
2022-11-05T08:01:07.213Z,76.07
2022-11-05T08:03:34.265Z,75.44
2022-11-05T08:06:00.917Z,76.15
2022-11-05T08:08:27.423Z,75.58
2022-11-05T08:10:53.854Z,75.69
2022-11-05T08:13:20.293Z,75.87
2022-11-05T08:15:46.771Z,76.05
2022-11-05T08:18:15.931Z,75.99
2022-11-05T08:20:44.258Z,75.67
2022-11-05T08:23:11.400Z,76.23
2022-11-05T08:25:38.282Z,76.06
2022-11-05T08:28:07.727Z,76.07
2022-11-05T08:30:35.341Z,75.89
2022-11-05T08:33:08.674Z,75.49
2022-11-05T08:35:36.094Z,75.85
2022-11-05T08:38:04.695Z,75.14
2022-11-05T08:40:34.531Z,76.17
2022-11-05T08:43:04.862Z,76.37
2022-11-05T08:45:31.729Z,77.84
2022-11-05T08:48:05.857Z,77.83
2022-11-05T08:50:32.919Z,76.63
2022-11-05T08:52:59.461Z,75.96
2022-11-05T08:55:26.681Z,76.48
2022-11-05T08:57:58.063Z,76.06
2022-11-05T09:00:25.679Z,76.40
2022-11-05T09:02:52.135Z,76.16
2022-11-05T09:05:18.536Z,75.44
2022-11-05T09:07:46.547Z,75.73
2022-11-05T09:10:13.048Z,76.28
2022-11-05T09:12:39.445Z,76.57
2022-11-05T09:15:06.194Z,76.54
2022-11-05T09:17:32.622Z,76.51
2022-11-05T09:19:59.035Z,76.23
2022-11-05T09:22:25.454Z,76.33
2022-11-05T09:24:51.879Z,76.21
2022-11-05T09:27:18.309Z,76.20
2022-11-05T09:29:44.752Z,76.94
2022-11-05T09:32:12.038Z,77.45
2022-11-05T09:34:38.443Z,78.71
2022-11-05T09:37:04.883Z,78.67
2022-11-05T09:39:31.273Z,77.58
2022-11-05T09:42:04.453Z,76.90
2022-11-05T09:44:41.475Z,77.20
2022-11-05T09:47:15.519Z,77.03
2022-11-05T09:49:47.806Z,76.88
2022-11-05T09:52:27.109Z,75.95
2022-11-05T09:54:55.482Z,76.59
2022-11-05T09:57:44.230Z,76.18
2022-11-05T10:00:18.490Z,76.75
2022-11-05T10:02:56.383Z,76.49
2022-11-05T10:05:25.452Z,76.49
2022-11-05T10:07:57.029Z,76.51
2022-11-05T10:10:33.264Z,76.27
2022-11-05T10:13:25.435Z,76.24
2022-11-05T10:16:02.502Z,79.31
2022-11-05T10:18:41.236Z,77.50
2022-11-05T10:21:15.931Z,77.21
2022-11-05T10:23:43.510Z,81.12
2022-11-05T10:26:14.177Z,78.73
2022-11-05T10:28:40.629Z,79.48
2022-11-05T10:31:11.828Z,81.63
2022-11-05T10:33:47.484Z,79.71
2022-11-05T10:36:24.648Z,79.96
2022-11-05T10:38:51.705Z,79.76
2022-11-05T10:42:05.777Z,78.26
2022-11-05T10:44:39.722Z,76.95
2022-11-05T10:47:18.178Z,78.31
2022-11-05T10:50:09.315Z,79.36
2022-11-05T10:52:39.286Z,77.20
2022-11-05T10:55:36.767Z,79.18
2022-11-05T10:58:22.017Z,77.44
2022-11-05T11:00:51.330Z,77.89
2022-11-05T11:03:32.835Z,77.66
2022-11-05T11:06:01.031Z,77.65
2022-11-05T11:08:28.434Z,78.78
2022-11-05T11:10:59.001Z,77.92
2022-11-05T11:13:28.148Z,77.43
2022-11-05T11:15:55.572Z,77.50
2022-11-05T11:18:40.461Z,77.41
2022-11-05T11:21:14.172Z,76.91
2022-11-05T11:23:42.379Z,77.75
2022-11-05T11:26:10.969Z,78.06
2022-11-05T11:28:43.165Z,77.27
2022-11-05T11:31:11.780Z,77.09
2022-11-05T11:33:40.851Z,78.03
2022-11-05T11:36:09.858Z,77.84
2022-11-05T11:38:37.106Z,79.17
2022-11-05T11:41:21.795Z,79.44
2022-11-05T11:43:48.527Z,79.60
2022-11-05T11:46:19.480Z,78.11
2022-11-05T11:48:48.068Z,78.78
2022-11-05T11:51:40.547Z,78.16
2022-11-05T11:54:19.724Z,78.13
2022-11-05T11:56:47.857Z,77.86
2022-11-05T11:59:40.456Z,77.84
2022-11-05T12:02:46.484Z,77.41
2022-11-05T12:05:28.974Z,77.13
2022-11-05T12:08:01.397Z,77.42
2022-11-05T12:10:55.803Z,77.09
2022-11-05T12:13:22.195Z,77.29
2022-11-05T12:16:00.538Z,77.20
2022-11-05T12:18:54.552Z,77.51
2022-11-05T12:21:52.889Z,77.31
2022-11-05T12:24:44.507Z,76.68
2022-11-05T12:27:43.519Z,77.59
2022-11-05T12:30:21.134Z,77.33
2022-11-05T12:32:56.411Z,77.13
2022-11-05T12:35:44.190Z,77.74
2022-11-05T12:38:34.475Z,77.77
2022-11-05T12:41:09.093Z,77.68
2022-11-05T12:43:55.979Z,77.04
2022-11-05T12:46:31.680Z,76.75
2022-11-05T12:49:16.753Z,77.04
2022-11-05T12:52:13.899Z,76.64
2022-11-05T12:54:52.443Z,76.95
2022-11-05T12:57:21.129Z,75.09
2022-11-05T12:59:57.281Z,77.19
2022-11-05T13:02:26.840Z,77.24
2022-11-05T13:04:59.548Z,76.88
2022-11-05T13:07:34.174Z,76.00
2022-11-05T13:10:06.147Z,76.06
2022-11-05T13:12:37.046Z,75.38
2022-11-05T13:15:28.257Z,77.11
2022-11-05T13:18:01.450Z,77.31
2022-11-05T13:20:31.403Z,76.73
2022-11-05T13:23:07.044Z,76.86
2022-11-05T13:25:37.489Z,76.19
2022-11-05T13:28:35.483Z,76.63
2022-11-05T13:31:06.114Z,77.13
2022-11-05T13:33:43.894Z,76.07
2022-11-05T13:36:42.869Z,76.78
2022-11-05T13:39:27.505Z,76.59
2022-11-05T13:42:03.029Z,77.40
2022-11-05T13:45:13.878Z,77.85
2022-11-05T13:47:49.441Z,77.20
2022-11-05T13:50:40.788Z,77.18
2022-11-05T13:53:10.099Z,77.46
2022-11-05T13:56:11.724Z,76.93
2022-11-05T13:59:15.784Z,76.93
2022-11-05T14:01:53.927Z,76.43
2022-11-05T14:04:49.187Z,74.92
2022-11-05T14:07:23.835Z,75.61
2022-11-05T14:09:59.537Z,76.44
2022-11-05T14:12:30.290Z,76.26
2022-11-05T14:15:11.049Z,76.40
2022-11-05T14:18:25.485Z,75.58
2022-11-05T14:21:00.707Z,76.30
2022-11-05T14:23:38.131Z,76.82
2022-11-05T14:26:15.735Z,76.46
2022-11-05T14:29:20.587Z,76.45
2022-11-05T14:32:07.905Z,75.88
2022-11-05T14:34:57.170Z,76.57
2022-11-05T14:37:27.192Z,76.89
2022-11-05T14:39:55.474Z,76.28
2022-11-05T14:42:30.331Z,76.60
2022-11-05T14:45:02.048Z,76.64
2022-11-05T14:47:33.775Z,76.16
2022-11-05T14:50:11.556Z,76.19
2022-11-05T14:52:40.258Z,76.16
2022-11-05T14:55:20.165Z,76.42
2022-11-05T14:57:52.707Z,75.97
2022-11-05T15:00:28.127Z,75.97
2022-11-05T15:03:03.516Z,75.82
2022-11-05T15:05:48.034Z,75.92
2022-11-05T15:08:24.734Z,76.39
2022-11-05T15:10:54.255Z,76.42
2022-11-05T15:13:31.211Z,76.78
2022-11-05T15:15:58.309Z,76.14
2022-11-05T15:18:40.730Z,76.70
2022-11-05T15:21:12.859Z,76.60
2022-11-05T15:23:43.172Z,76.36
2022-11-05T15:26:20.404Z,76.60
2022-11-05T15:28:49.949Z,76.62
2022-11-05T15:31:16.273Z,75.83
2022-11-05T15:33:46.790Z,76.19
2022-11-05T15:36:28.357Z,76.85
2022-11-05T15:39:28.014Z,75.86
2022-11-05T15:41:42.998Z,76.87
2022-11-05T15:44:24.343Z,76.43
2022-11-05T15:47:07.790Z,76.39
2022-11-05T15:49:35.445Z,76.11
2022-11-05T15:52:01.995Z,77.06
2022-11-05T15:54:30.862Z,77.18
2022-11-05T15:56:59.700Z,77.88
2022-11-05T15:59:29.033Z,77.49
2022-11-05T16:02:19.101Z,77.79
2022-11-05T16:04:47.747Z,76.75
2022-11-05T16:07:15.610Z,76.23
2022-11-05T16:09:50.755Z,76.27
2022-11-05T16:12:20.035Z,76.77
2022-11-05T16:15:08.025Z,76.38
2022-11-05T16:17:37.382Z,76.71
2022-11-05T16:20:19.599Z,76.60
2022-11-05T16:22:48.763Z,76.79
2022-11-05T16:25:24.292Z,76.76
2022-11-05T16:27:50.835Z,76.83
2022-11-05T16:30:19.463Z,76.05
2022-11-05T16:32:46.725Z,76.87
2022-11-05T16:35:25.020Z,75.92
2022-11-05T16:37:52.703Z,76.03
2022-11-05T16:40:21.937Z,76.44
2022-11-05T16:42:51.283Z,76.54
2022-11-05T16:45:21.023Z,76.75
2022-11-05T16:47:47.623Z,76.55
2022-11-05T16:50:14.038Z,75.80
2022-11-05T16:52:40.451Z,76.16
2022-11-05T16:55:07.145Z,76.34
2022-11-05T16:57:33.586Z,75.91
2022-11-05T17:00:00.737Z,76.22
2022-11-05T17:02:27.989Z,76.51
2022-11-05T17:04:54.591Z,76.28
2022-11-05T17:07:21.055Z,76.80
2022-11-05T17:09:47.512Z,75.68
2022-11-05T17:12:14.428Z,75.90
2022-11-05T17:14:40.851Z,75.60
2022-11-05T17:17:07.294Z,75.86
2022-11-05T17:19:34.073Z,76.45
2022-11-05T17:22:00.471Z,76.25
2022-11-05T17:24:26.848Z,76.61
2022-11-05T17:26:53.304Z,76.26
2022-11-05T17:29:19.711Z,75.60
2022-11-05T17:31:46.214Z,75.71
2022-11-05T17:34:12.821Z,75.92
2022-11-05T17:36:39.208Z,75.97
2022-11-05T17:39:05.655Z,75.87
2022-11-05T17:41:32.071Z,76.20
2022-11-05T17:43:58.546Z,76.00
2022-11-05T17:46:25.094Z,76.39
2022-11-05T17:48:51.534Z,75.89
2022-11-05T17:51:19.421Z,76.06
2022-11-05T17:53:48.394Z,76.00
2022-11-05T17:56:28.937Z,76.11
2022-11-05T17:59:00.677Z,75.85
2022-11-05T18:01:30.240Z,76.53
2022-11-05T18:03:56.653Z,75.71
2022-11-05T18:06:23.109Z,75.70
2022-11-05T18:08:49.602Z,76.19
2022-11-05T18:11:16.497Z,75.64
2022-11-05T18:13:43.079Z,75.48
2022-11-05T18:16:10.374Z,75.62
2022-11-05T18:18:36.912Z,76.33
2022-11-05T18:21:03.485Z,76.29
2022-11-05T18:23:29.958Z,76.69
2022-11-05T18:25:56.414Z,76.57
2022-11-05T18:31:08.267Z,77.11
2022-11-05T18:33:34.910Z,77.46
2022-11-05T18:36:01.305Z,77.23
2022-11-05T18:38:27.672Z,76.47
2022-11-05T18:40:54.066Z,76.83
2022-11-05T18:43:20.455Z,77.21
2022-11-05T18:45:54.816Z,75.95
2022-11-05T18:48:21.197Z,77.86
2022-11-05T18:50:47.568Z,78.02
2022-11-05T18:53:13.968Z,77.74
2022-11-05T18:55:40.788Z,76.49
2022-11-05T18:58:07.522Z,77.65
2022-11-05T19:00:34.367Z,77.59
2022-11-05T19:03:01.163Z,77.33
2022-11-05T19:05:29.384Z,78.01
2022-11-05T19:07:56.578Z,77.27
2022-11-05T19:10:23.024Z,77.40
2022-11-05T19:12:49.484Z,77.68
2022-11-05T19:15:15.908Z,78.69
2022-11-05T19:17:42.573Z,77.86
2022-11-05T19:20:10.432Z,77.35
2022-11-05T19:22:36.969Z,77.66
2022-11-05T19:25:04.130Z,77.98
2022-11-05T19:27:30.719Z,78.23
2022-11-05T19:29:57.233Z,78.52
2022-11-05T19:32:24.461Z,78.95
2022-11-05T19:34:50.839Z,78.76
2022-11-05T19:37:17.260Z,79.18
2022-11-05T19:39:43.854Z,78.83
2022-11-05T19:42:10.240Z,78.75
2022-11-05T19:44:36.671Z,78.75
2022-11-05T19:47:03.099Z,78.80
2022-11-05T19:49:29.494Z,78.81
2022-11-05T19:51:55.908Z,79.21
2022-11-05T19:54:22.365Z,78.69
2022-11-05T19:56:50.089Z,78.91
2022-11-05T19:59:16.549Z,78.39
2022-11-05T20:01:43.036Z,78.57
2022-11-05T20:04:09.711Z,78.57
2022-11-05T20:06:38.817Z,78.57
2022-11-05T20:09:21.554Z,79.06
2022-11-05T20:11:56.289Z,78.20
2022-11-05T20:14:24.746Z,78.28
2022-11-05T20:16:51.744Z,78.59
2022-11-05T20:19:20.158Z,78.84
2022-11-05T20:21:47.109Z,78.32
2022-11-05T20:24:22.082Z,78.72
2022-11-05T20:26:50.742Z,79.21
2022-11-05T20:29:17.330Z,79.11
2022-11-05T20:31:43.727Z,78.43
2022-11-05T20:34:10.631Z,78.27
2022-11-05T20:36:37.142Z,78.69
2022-11-05T20:39:03.864Z,79.27
2022-11-05T20:41:31.458Z,79.20
2022-11-05T20:43:57.930Z,79.06
2022-11-05T20:46:24.890Z,78.85
2022-11-05T20:48:51.465Z,79.37
2022-11-05T20:51:20.916Z,79.02
2022-11-05T20:53:47.701Z,79.03
2022-11-05T20:56:22.699Z,79.17
2022-11-05T20:58:50.347Z,79.02
2022-11-05T21:01:18.145Z,79.57
2022-11-05T21:03:46.763Z,79.36
2022-11-05T21:06:13.793Z,78.94
2022-11-05T21:08:40.441Z,78.79
2022-11-05T21:11:07.454Z,78.64
2022-11-05T21:13:34.712Z,78.80
2022-11-05T21:16:01.285Z,79.08
2022-11-05T21:18:30.824Z,79.01
2022-11-05T21:20:57.554Z,78.61
2022-11-05T21:23:23.950Z,78.95
2022-11-05T21:25:50.420Z,78.65
2022-11-05T21:28:17.388Z,78.28
2022-11-05T21:30:45.769Z,79.02
2022-11-05T21:33:14.097Z,78.58
2022-11-05T21:35:43.930Z,78.40
2022-11-05T21:38:12.000Z,78.81
2022-11-05T21:40:38.983Z,78.44
2022-11-05T21:43:06.343Z,78.81
2022-11-05T21:45:33.170Z,78.78
2022-11-05T21:47:59.698Z,79.11
2022-11-05T21:50:44.816Z,79.26
2022-11-05T21:53:34.191Z,78.95
2022-11-05T21:56:23.453Z,79.71
2022-11-05T21:59:08.242Z,79.41
2022-11-05T22:01:34.794Z,77.92
2022-11-05T22:04:03.242Z,79.35
2022-11-05T22:06:33.106Z,79.02
2022-11-05T22:08:59.390Z,78.44
2022-11-05T22:11:25.898Z,78.94
2022-11-05T22:13:53.241Z,79.02
2022-11-05T22:16:19.786Z,79.00
2022-11-05T22:18:46.349Z,79.07
2022-11-05T22:21:18.185Z,79.15
2022-11-05T22:23:44.608Z,78.68
2022-11-05T22:26:10.987Z,78.88
2022-11-05T22:28:37.512Z,79.25
2022-11-05T22:31:03.984Z,79.25
2022-11-05T22:33:31.027Z,78.99
2022-11-05T22:35:57.425Z,78.76
2022-11-05T22:38:23.802Z,79.13
2022-11-05T22:40:50.303Z,78.33
2022-11-05T22:43:16.860Z,78.59
2022-11-05T22:45:43.827Z,79.21
2022-11-05T22:48:10.579Z,78.68
2022-11-05T22:50:37.324Z,79.19
2022-11-05T22:53:03.882Z,78.44
2022-11-05T22:55:30.303Z,79.18
2022-11-05T22:57:56.809Z,78.51
2022-11-05T23:00:36.801Z,78.47
2022-11-05T23:03:03.462Z,78.46
2022-11-05T23:05:30.055Z,78.73
2022-11-05T23:08:15.674Z,77.82
2022-11-05T23:11:01.159Z,78.06
2022-11-05T23:13:27.578Z,78.53
2022-11-05T23:16:12.431Z,78.88
2022-11-05T23:18:57.260Z,78.28
2022-11-05T23:21:42.094Z,78.62
2022-11-05T23:24:08.612Z,77.99
2022-11-05T23:26:50.126Z,78.52
2022-11-05T23:29:34.866Z,77.81
2022-11-05T23:32:20.885Z,77.36
2022-11-05T23:34:47.369Z,78.29
2022-11-05T23:37:32.459Z,78.73
2022-11-05T23:39:58.851Z,77.72
2022-11-05T23:42:43.932Z,78.08
2022-11-05T23:45:29.243Z,78.24
2022-11-05T23:48:14.347Z,77.99
2022-11-05T23:50:41.797Z,78.60
2022-11-05T23:53:09.210Z,77.50
2022-11-05T23:55:35.912Z,77.89
2022-11-05T23:58:02.472Z,78.32
